Time;durP1;ratioP1;P1;durP2;ratioP2;P2;SDS_P1;SDS_P2;PMS_P1;PMS_P2;Temp;Humidity;BMP_temperature;BMP_pressure;BME280_temperature;BME280_humidity;BME280_pressure;Samples;Min_cycle;Max_cycle;Signal;HPM_P1;HPM_P2
2024/03/29 00:00:20;;;;;;;3.4;2.5;;;;;;;;;;;;;
2024/03/29 00:02:45;;;;;;;4;2.8;;;;;;;;;;;;;
2024/03/29 00:05:10;;;;;;;3.7;2.3;;;;;;;;;;;;;
2024/03/29 00:07:35;;;;;;;3.2;2.5;;;;;;;;;;;;;
2024/03/29 00:10:00;;;;;;;3.5;2.4;;;;;;;;;;;;;
2024/03/29 00:12:26;;;;;;;6.1;3.4;;;;;;;;;;;;;
2024/03/29 00:14:51;;;;;;;2.5;1.9;;;;;;;;;;;;;
2024/03/29 00:17:16;;;;;;;2.1;1.7;;;;;;;;;;;;;
2024/03/29 00:19:41;;;;;;;2.1;1.8;;;;;;;;;;;;;
2024/03/29 00:22:06;;;;;;;2.5;1.7;;;;;;;;;;;;;
2024/03/29 00:24:32;;;;;;;3.3;2.8;;;;;;;;;;;;;
2024/03/29 00:26:56;;;;;;;5.4;3.5;;;;;;;;;;;;;
2024/03/29 00:29:22;;;;;;;3.5;2.9;;;;;;;;;;;;;
2024/03/29 00:31:47;;;;;;;4.4;2.6;;;;;;;;;;;;;
2024/03/29 00:34:12;;;;;;;3.3;2.5;;;;;;;;;;;;;
2024/03/29 00:36:37;;;;;;;3.2;2.3;;;;;;;;;;;;;
2024/03/29 00:39:02;;;;;;;5.6;2.7;;;;;;;;;;;;;
2024/03/29 00:41:27;;;;;;;12.3;4.9;;;;;;;;;;;;;
2024/03/29 00:43:53;;;;;;;2.9;2.4;;;;;;;;;;;;;
2024/03/29 00:46:18;;;;;;;3.5;2.4;;;;;;;;;;;;;
2024/03/29 00:48:45;;;;;;;3.3;2.6;;;;;;;;;;;;;
2024/03/29 00:51:08;;;;;;;2.4;1.9;;;;;;;;;;;;;
2024/03/29 00:53:33;;;;;;;2.4;1.6;;;;;;;;;;;;;
2024/03/29 00:55:58;;;;;;;1.9;1.6;;;;;;;;;;;;;
2024/03/29 00:58:23;;;;;;;1.5;1.4;;;;;;;;;;;;;
2024/03/29 01:00:48;;;;;;;1.8;1.4;;;;;;;;;;;;;
2024/03/29 01:03:13;;;;;;;1.6;1.4;;;;;;;;;;;;;
2024/03/29 01:05:38;;;;;;;0.8;0.8;;;;;;;;;;;;;
2024/03/29 01:08:04;;;;;;;1.9;1.7;;;;;;;;;;;;;
2024/03/29 01:10:29;;;;;;;2;1.8;;;;;;;;;;;;;
2024/03/29 01:12:54;;;;;;;1.7;1.6;;;;;;;;;;;;;
2024/03/29 01:15:19;;;;;;;1.5;1.4;;;;;;;;;;;;;
2024/03/29 01:17:45;;;;;;;1.7;1.5;;;;;;;;;;;;;
2024/03/29 01:20:11;;;;;;;1.5;1.2;;;;;;;;;;;;;
2024/03/29 01:22:35;;;;;;;2.4;1.5;;;;;;;;;;;;;
2024/03/29 01:25:03;;;;;;;1.8;1.4;;;;;;;;;;;;;
2024/03/29 01:27:25;;;;;;;1.7;1.5;;;;;;;;;;;;;
2024/03/29 01:29:50;;;;;;;1.5;1.3;;;;;;;;;;;;;
2024/03/29 01:32:16;;;;;;;1.9;1.3;;;;;;;;;;;;;
2024/03/29 01:34:41;;;;;;;1.7;1.2;;;;;;;;;;;;;
2024/03/29 01:37:06;;;;;;;1.7;1.4;;;;;;;;;;;;;
2024/03/29 01:39:31;;;;;;;1.4;1.3;;;;;;;;;;;;;
2024/03/29 01:41:56;;;;;;;2.4;1.3;;;;;;;;;;;;;
2024/03/29 01:44:21;;;;;;;1.1;1;;;;;;;;;;;;;
2024/03/29 01:46:47;;;;;;;2;1.3;;;;;;;;;;;;;
2024/03/29 01:49:12;;;;;;;1.3;1.2;;;;;;;;;;;;;
2024/03/29 01:51:37;;;;;;;1.4;1.3;;;;;;;;;;;;;
2024/03/29 01:54:02;;;;;;;1.5;1.2;;;;;;;;;;;;;
2024/03/29 01:56:27;;;;;;;1.8;1;;;;;;;;;;;;;
2024/03/29 01:58:53;;;;;;;1.1;1;;;;;;;;;;;;;
2024/03/29 02:01:17;;;;;;;1.9;1.3;;;;;;;;;;;;;
2024/03/29 02:03:42;;;;;;;0.9;0.9;;;;;;;;;;;;;
2024/03/29 02:06:07;;;;;;;1;1;;;;;;;;;;;;;
2024/03/29 02:08:32;;;;;;;1.1;1;;;;;;;;;;;;;
2024/03/29 02:10:58;;;;;;;1.5;0.9;;;;;;;;;;;;;
2024/03/29 02:13:23;;;;;;;1.5;1.3;;;;;;;;;;;;;
2024/03/29 02:15:48;;;;;;;1.5;1.1;;;;;;;;;;;;;
2024/03/29 02:18:13;;;;;;;0.8;0.8;;;;;;;;;;;;;
2024/03/29 02:20:38;;;;;;;1.1;0.9;;;;;;;;;;;;;
2024/03/29 02:23:03;;;;;;;1.7;1;;;;;;;;;;;;;
2024/03/29 02:25:28;;;;;;;1.1;1;;;;;;;;;;;;;
2024/03/29 02:27:53;;;;;;;1.1;1;;;;;;;;;;;;;
2024/03/29 02:30:18;;;;;;;0.8;0.8;;;;;;;;;;;;;
2024/03/29 02:32:44;;;;;;;1;0.9;;;;;;;;;;;;;
2024/03/29 02:35:09;;;;;;;2.1;0.9;;;;;;;;;;;;;
2024/03/29 02:37:34;;;;;;;0.8;0.8;;;;;;;;;;;;;
2024/03/29 02:39:59;;;;;;;0.9;0.8;;;;;;;;;;;;;
2024/03/29 02:42:24;;;;;;;1.7;1.3;;;;;;;;;;;;;
2024/03/29 02:44:49;;;;;;;0.8;0.8;;;;;;;;;;;;;
2024/03/29 02:47:14;;;;;;;1.4;1.3;;;;;;;;;;;;;
2024/03/29 02:49:39;;;;;;;1.6;1;;;;;;;;;;;;;
2024/03/29 02:52:04;;;;;;;1.5;1.1;;;;;;;;;;;;;
2024/03/29 02:54:29;;;;;;;1.8;1.2;;;;;;;;;;;;;
2024/03/29 02:56:55;;;;;;;1.3;0.9;;;;;;;;;;;;;
2024/03/29 02:59:20;;;;;;;1.1;1;;;;;;;;;;;;;
2024/03/29 03:01:45;;;;;;;1.1;0.9;;;;;;;;;;;;;
2024/03/29 03:04:10;;;;;;;1.2;0.9;;;;;;;;;;;;;
2024/03/29 03:06:35;;;;;;;0.8;0.8;;;;;;;;;;;;;
2024/03/29 03:11:25;;;;;;;1;0.8;;;;;;;;;;;;;
2024/03/29 03:13:50;;;;;;;1.1;1;;;;;;;;;;;;;
2024/03/29 03:16:15;;;;;;;2.4;1.8;;;;;;;;;;;;;
2024/03/29 03:18:41;;;;;;;9.2;6.3;;;;;;;;;;;;;
2024/03/29 03:21:06;;;;;;;3;2.3;;;;;;;;;;;;;
2024/03/29 03:23:31;;;;;;;2.3;1.6;;;;;;;;;;;;;
2024/03/29 03:25:58;;;;;;;1.1;1;;;;;;;;;;;;;
2024/03/29 03:28:22;;;;;;;1.1;1.1;;;;;;;;;;;;;
2024/03/29 03:30:48;;;;;;;1.7;1.2;;;;;;;;;;;;;
2024/03/29 03:33:13;;;;;;;1;0.9;;;;;;;;;;;;;
2024/03/29 03:35:38;;;;;;;1.2;0.9;;;;;;;;;;;;;
2024/03/29 03:38:03;;;;;;;1.8;1.1;;;;;;;;;;;;;
2024/03/29 03:40:28;;;;;;;0.9;0.9;;;;;;;;;;;;;
2024/03/29 03:42:53;;;;;;;1.9;0.8;;;;;;;;;;;;;
2024/03/29 03:45:18;;;;;;;0.9;0.9;;;;;;;;;;;;;
2024/03/29 03:47:44;;;;;;;0.8;0.8;;;;;;;;;;;;;
2024/03/29 03:50:09;;;;;;;4.1;3.8;;;;;;;;;;;;;
2024/03/29 03:52:34;;;;;;;2.1;1.9;;;;;;;;;;;;;
2024/03/29 03:54:59;;;;;;;2;1.1;;;;;;;;;;;;;
2024/03/29 03:57:24;;;;;;;2.1;1.2;;;;;;;;;;;;;
2024/03/29 03:59:50;;;;;;;2.8;1.3;;;;;;;;;;;;;
2024/03/29 04:02:29;;;;;;;11.7;5.9;;;;;;;;;;;;;
2024/03/29 04:04:55;;;;;;;1.8;1.6;;;;;;;;;;;;;
2024/03/29 04:07:19;;;;;;;1.3;1.1;;;;;;;;;;;;;
2024/03/29 04:09:44;;;;;;;1.1;1;;;;;;;;;;;;;
2024/03/29 04:12:09;;;;;;;1;1;;;;;;;;;;;;;
2024/03/29 04:14:34;;;;;;;1.1;0.8;;;;;;;;;;;;;
2024/03/29 04:17:00;;;;;;;0.8;0.8;;;;;;;;;;;;;
2024/03/29 04:19:25;;;;;;;2.4;1.1;;;;;;;;;;;;;
2024/03/29 04:21:50;;;;;;;2.2;1.2;;;;;;;;;;;;;
2024/03/29 04:24:15;;;;;;;1.2;1.1;;;;;;;;;;;;;
2024/03/29 04:26:40;;;;;;;1;0.9;;;;;;;;;;;;;
2024/03/29 04:29:05;;;;;;;0.8;0.8;;;;;;;;;;;;;
2024/03/29 04:31:30;;;;;;;1.7;1.4;;;;;;;;;;;;;
2024/03/29 04:33:56;;;;;;;1.2;1.1;;;;;;;;;;;;;
2024/03/29 04:36:21;;;;;;;1.1;1;;;;;;;;;;;;;
2024/03/29 04:38:47;;;;;;;3.8;2.2;;;;;;;;;;;;;
2024/03/29 04:41:11;;;;;;;2.3;1.8;;;;;;;;;;;;;
2024/03/29 04:43:36;;;;;;;1.9;1.4;;;;;;;;;;;;;
2024/03/29 04:46:01;;;;;;;1.9;1.5;;;;;;;;;;;;;
2024/03/29 04:48:26;;;;;;;1.8;1.3;;;;;;;;;;;;;
2024/03/29 04:50:51;;;;;;;3.6;1.5;;;;;;;;;;;;;
2024/03/29 04:53:16;;;;;;;1.5;1.4;;;;;;;;;;;;;
2024/03/29 04:55:42;;;;;;;1.5;1.4;;;;;;;;;;;;;
2024/03/29 04:58:07;;;;;;;2.2;1.1;;;;;;;;;;;;;
2024/03/29 05:00:32;;;;;;;1.1;1;;;;;;;;;;;;;
2024/03/29 05:02:57;;;;;;;1.1;1;;;;;;;;;;;;;
2024/03/29 05:05:22;;;;;;;1.5;1.4;;;;;;;;;;;;;
2024/03/29 05:07:47;;;;;;;2;1.4;;;;;;;;;;;;;
2024/03/29 05:10:12;;;;;;;1.7;1.5;;;;;;;;;;;;;
2024/03/29 05:12:38;;;;;;;1.9;1.7;;;;;;;;;;;;;
2024/03/29 05:15:03;;;;;;;2;1.8;;;;;;;;;;;;;
2024/03/29 05:17:28;;;;;;;3.3;1.8;;;;;;;;;;;;;
2024/03/29 05:19:53;;;;;;;1.9;1.7;;;;;;;;;;;;;
2024/03/29 05:22:18;;;;;;;2.1;1.5;;;;;;;;;;;;;
2024/03/29 05:24:43;;;;;;;1.7;1.5;;;;;;;;;;;;;
2024/03/29 05:27:08;;;;;;;1.9;1.4;;;;;;;;;;;;;
2024/03/29 05:29:34;;;;;;;4.6;2;;;;;;;;;;;;;
2024/03/29 05:31:59;;;;;;;3.5;2.5;;;;;;;;;;;;;
2024/03/29 05:34:24;;;;;;;3.9;2.5;;;;;;;;;;;;;
2024/03/29 05:36:50;;;;;;;3.6;2.3;;;;;;;;;;;;;
2024/03/29 05:39:15;;;;;;;2.7;2;;;;;;;;;;;;;
2024/03/29 05:41:39;;;;;;;7.2;3.6;;;;;;;;;;;;;
2024/03/29 05:44:06;;;;;;;3.7;2.6;;;;;;;;;;;;;
2024/03/29 05:46:30;;;;;;;5.5;3.8;;;;;;;;;;;;;
2024/03/29 05:48:56;;;;;;;6;4;;;;;;;;;;;;;
2024/03/29 05:51:21;;;;;;;3.1;2.6;;;;;;;;;;;;;
2024/03/29 05:53:46;;;;;;;3.1;2;;;;;;;;;;;;;
2024/03/29 05:56:11;;;;;;;2.9;2.2;;;;;;;;;;;;;
2024/03/29 05:58:36;;;;;;;2;1.7;;;;;;;;;;;;;
2024/03/29 06:01:02;;;;;;;2.9;2.1;;;;;;;;;;;;;
2024/03/29 06:03:28;;;;;;;2.5;2.1;;;;;;;;;;;;;
2024/03/29 06:05:52;;;;;;;2.7;1.9;;;;;;;;;;;;;
2024/03/29 06:08:17;;;;;;;2.5;2;;;;;;;;;;;;;
2024/03/29 06:10:42;;;;;;;2.8;2.3;;;;;;;;;;;;;
2024/03/29 06:13:27;;;;;;;2.3;1.7;;;;;;;;;;;;;
2024/03/29 06:17:58;;;;;;;1.5;1.2;;;;;;;;;;;;;
2024/03/29 06:20:23;;;;;;;1.8;1.1;;;;;;;;;;;;;
2024/03/29 06:22:48;;;;;;;2.2;1.4;;;;;;;;;;;;;
2024/03/29 06:25:13;;;;;;;2.9;1.9;;;;;;;;;;;;;
2024/03/29 06:27:39;;;;;;;1.4;1.2;;;;;;;;;;;;;
2024/03/29 06:30:03;;;;;;;2.2;1.5;;;;;;;;;;;;;
2024/03/29 06:32:28;;;;;;;3.2;1.8;;;;;;;;;;;;;
2024/03/29 06:34:53;;;;;;;1.2;1.1;;;;;;;;;;;;;
2024/03/29 06:37:20;;;;;;;1.4;1.2;;;;;;;;;;;;;
2024/03/29 06:39:44;;;;;;;0.7;0.6;;;;;;;;;;;;;
2024/03/29 06:42:09;;;;;;;0.7;0.4;;;;;;;;;;;;;
2024/03/29 06:44:35;;;;;;;1.2;0.6;;;;;;;;;;;;;
2024/03/29 06:47:00;;;;;;;0.9;0.7;;;;;;;;;;;;;
2024/03/29 06:49:24;;;;;;;1.5;0.9;;;;;;;;;;;;;
2024/03/29 06:51:49;;;;;;;1;0.5;;;;;;;;;;;;;
2024/03/29 06:54:14;;;;;;;1.9;0.8;;;;;;;;;;;;;
2024/03/29 06:56:39;;;;;;;1.6;0.9;;;;;;;;;;;;;
2024/03/29 06:59:04;;;;;;;1.4;1.2;;;;;;;;;;;;;
2024/03/29 07:01:30;;;;;;;0.5;0.5;;;;;;;;;;;;;
2024/03/29 07:03:55;;;;;;;1;0.5;;;;;;;;;;;;;
2024/03/29 07:06:20;;;;;;;0.5;0.5;;;;;;;;;;;;;
2024/03/29 07:08:47;;;;;;;0.6;0.5;;;;;;;;;;;;;
2024/03/29 07:11:10;;;;;;;1.4;0.9;;;;;;;;;;;;;
2024/03/29 07:13:35;;;;;;;1.1;0.8;;;;;;;;;;;;;
2024/03/29 07:16:00;;;;;;;1.2;0.6;;;;;;;;;;;;;
2024/03/29 07:18:26;;;;;;;1.5;0.5;;;;;;;;;;;;;
2024/03/29 07:20:51;;;;;;;1.2;0.7;;;;;;;;;;;;;
2024/03/29 07:23:16;;;;;;;3.3;1.2;;;;;;;;;;;;;
2024/03/29 07:25:41;;;;;;;2.1;1.3;;;;;;;;;;;;;
2024/03/29 07:28:06;;;;;;;1.1;1;;;;;;;;;;;;;
2024/03/29 07:30:31;;;;;;;0.6;0.5;;;;;;;;;;;;;
2024/03/29 07:32:56;;;;;;;1.2;0.9;;;;;;;;;;;;;
2024/03/29 07:35:21;;;;;;;1;0.9;;;;;;;;;;;;;
2024/03/29 07:37:49;;;;;;;1.5;0.8;;;;;;;;;;;;;
2024/03/29 07:40:12;;;;;;;15.5;1.9;;;;;;;;;;;;;
2024/03/29 07:42:37;;;;;;;1.4;0.5;;;;;;;;;;;;;
2024/03/29 07:45:02;;;;;;;1.1;0.7;;;;;;;;;;;;;
2024/03/29 07:47:27;;;;;;;0.6;0.5;;;;;;;;;;;;;
2024/03/29 07:49:52;;;;;;;0.6;0.6;;;;;;;;;;;;;
2024/03/29 07:52:19;;;;;;;4;1.6;;;;;;;;;;;;;
2024/03/29 07:54:43;;;;;;;3.4;1.6;;;;;;;;;;;;;
2024/03/29 07:57:08;;;;;;;1.6;1.1;;;;;;;;;;;;;
2024/03/29 07:59:33;;;;;;;1.5;1;;;;;;;;;;;;;
2024/03/29 08:01:58;;;;;;;1.9;0.9;;;;;;;;;;;;;
2024/03/29 08:04:23;;;;;;;0.6;0.6;;;;;;;;;;;;;
2024/03/29 08:06:48;;;;;;;0.5;0.4;;;;;;;;;;;;;
2024/03/29 08:09:15;;;;;;;0.8;0.7;;;;;;;;;;;;;
2024/03/29 08:11:39;;;;;;;1.4;0.6;;;;;;;;;;;;;
2024/03/29 08:14:04;;;;;;;1;0.8;;;;;;;;;;;;;
2024/03/29 08:16:29;;;;;;;0.7;0.5;;;;;;;;;;;;;
2024/03/29 08:18:55;;;;;;;1.5;0.5;;;;;;;;;;;;;
2024/03/29 08:21:20;;;;;;;0.8;0.5;;;;;;;;;;;;;
2024/03/29 08:23:51;;;;;;;0.7;0.6;;;;;;;;;;;;;
2024/03/29 08:26:10;;;;;;;0.4;0.4;;;;;;;;;;;;;
2024/03/29 08:28:37;;;;;;;3.9;0.9;;;;;;;;;;;;;
2024/03/29 08:31:01;;;;;;;1.4;0.8;;;;;;;;;;;;;
2024/03/29 08:33:25;;;;;;;2;0.6;;;;;;;;;;;;;
2024/03/29 08:35:50;;;;;;;0.8;0.5;;;;;;;;;;;;;
2024/03/29 08:38:15;;;;;;;0.7;0.6;;;;;;;;;;;;;
2024/03/29 08:40:43;;;;;;;1.3;0.5;;;;;;;;;;;;;
2024/03/29 08:43:06;;;;;;;0.4;0.4;;;;;;;;;;;;;
2024/03/29 08:45:31;;;;;;;0.7;0.4;;;;;;;;;;;;;
2024/03/29 08:47:56;;;;;;;1.1;0.5;;;;;;;;;;;;;
2024/03/29 08:50:21;;;;;;;0.6;0.4;;;;;;;;;;;;;
2024/03/29 08:52:46;;;;;;;0.6;0.5;;;;;;;;;;;;;
2024/03/29 08:55:11;;;;;;;0.5;0.5;;;;;;;;;;;;;
2024/03/29 08:57:36;;;;;;;0.7;0.5;;;;;;;;;;;;;
2024/03/29 09:00:03;;;;;;;0.6;0.4;;;;;;;;;;;;;
2024/03/29 09:02:26;;;;;;;1.8;0.7;;;;;;;;;;;;;
2024/03/29 09:04:52;;;;;;;1.3;0.9;;;;;;;;;;;;;
2024/03/29 09:07:17;;;;;;;1.1;0.9;;;;;;;;;;;;;
2024/03/29 09:09:42;;;;;;;0.8;0.6;;;;;;;;;;;;;
2024/03/29 09:12:07;;;;;;;1.5;1.2;;;;;;;;;;;;;
2024/03/29 09:14:32;;;;;;;2;1;;;;;;;;;;;;;
2024/03/29 09:16:57;;;;;;;2;0.7;;;;;;;;;;;;;
2024/03/29 09:19:23;;;;;;;1.5;1;;;;;;;;;;;;;
2024/03/29 09:21:48;;;;;;;1;0.8;;;;;;;;;;;;;
2024/03/29 09:24:12;;;;;;;0.9;0.5;;;;;;;;;;;;;
2024/03/29 09:26:40;;;;;;;1.3;0.5;;;;;;;;;;;;;
2024/03/29 09:29:03;;;;;;;0.5;0.4;;;;;;;;;;;;;
2024/03/29 09:31:28;;;;;;;0.6;0.6;;;;;;;;;;;;;
2024/03/29 09:33:57;;;;;;;0.7;0.3;;;;;;;;;;;;;
2024/03/29 09:36:18;;;;;;;0.5;0.5;;;;;;;;;;;;;
2024/03/29 09:38:43;;;;;;;0.9;0.3;;;;;;;;;;;;;
2024/03/29 09:41:08;;;;;;;1.4;0.5;;;;;;;;;;;;;
2024/03/29 09:43:33;;;;;;;0.7;0.4;;;;;;;;;;;;;
2024/03/29 09:45:58;;;;;;;0.6;0.5;;;;;;;;;;;;;
2024/03/29 09:48:23;;;;;;;0.9;0.4;;;;;;;;;;;;;
2024/03/29 09:50:48;;;;;;;1;0.4;;;;;;;;;;;;;
2024/03/29 09:53:14;;;;;;;1;0.4;;;;;;;;;;;;;
2024/03/29 09:55:39;;;;;;;0.5;0.4;;;;;;;;;;;;;
2024/03/29 09:58:04;;;;;;;1.5;0.6;;;;;;;;;;;;;
2024/03/29 10:00:29;;;;;;;0.7;0.5;;;;;;;;;;;;;
2024/03/29 10:02:54;;;;;;;0.3;0.3;;;;;;;;;;;;;
2024/03/29 10:05:19;;;;;;;0.4;0.4;;;;;;;;;;;;;
2024/03/29 10:07:44;;;;;;;0.4;0.4;;;;;;;;;;;;;
2024/03/29 10:10:10;;;;;;;0.3;0.3;;;;;;;;;;;;;
2024/03/29 10:12:35;;;;;;;1.5;0.5;;;;;;;;;;;;;
2024/03/29 10:15:05;;;;;;;0.3;0.3;;;;;;;;;;;;;
2024/03/29 10:17:25;;;;;;;0.8;0.2;;;;;;;;;;;;;
2024/03/29 10:19:50;;;;;;;0.6;0.4;;;;;;;;;;;;;
2024/03/29 10:22:16;;;;;;;0.4;0.4;;;;;;;;;;;;;
2024/03/29 10:24:40;;;;;;;0.7;0.3;;;;;;;;;;;;;
2024/03/29 10:27:05;;;;;;;0.5;0.4;;;;;;;;;;;;;
2024/03/29 10:29:30;;;;;;;1.2;0.6;;;;;;;;;;;;;
2024/03/29 10:31:56;;;;;;;1;0.3;;;;;;;;;;;;;
2024/03/29 10:34:21;;;;;;;0.2;0.2;;;;;;;;;;;;;
2024/03/29 10:36:46;;;;;;;0.4;0.3;;;;;;;;;;;;;
2024/03/29 10:39:12;;;;;;;1.4;0.2;;;;;;;;;;;;;
2024/03/29 10:41:36;;;;;;;0.2;0.2;;;;;;;;;;;;;
2024/03/29 10:44:01;;;;;;;0.7;0.4;;;;;;;;;;;;;
2024/03/29 10:46:27;;;;;;;1.1;0.3;;;;;;;;;;;;;
2024/03/29 10:48:52;;;;;;;0.5;0.3;;;;;;;;;;;;;
2024/03/29 10:51:17;;;;;;;0.3;0.3;;;;;;;;;;;;;
2024/03/29 10:53:42;;;;;;;0.3;0.3;;;;;;;;;;;;;
2024/03/29 10:56:07;;;;;;;0.2;0.2;;;;;;;;;;;;;
2024/03/29 10:58:32;;;;;;;1.2;0.3;;;;;;;;;;;;;
2024/03/29 11:00:57;;;;;;;1.2;0.2;;;;;;;;;;;;;
2024/03/29 11:03:22;;;;;;;0.7;0.3;;;;;;;;;;;;;
2024/03/29 11:05:48;;;;;;;0.4;0.4;;;;;;;;;;;;;
2024/03/29 11:08:12;;;;;;;0.3;0.3;;;;;;;;;;;;;
2024/03/29 11:10:38;;;;;;;0.3;0.2;;;;;;;;;;;;;
2024/03/29 11:13:03;;;;;;;0.2;0.2;;;;;;;;;;;;;
2024/03/29 11:15:28;;;;;;;0.3;0.3;;;;;;;;;;;;;
2024/03/29 11:17:53;;;;;;;0.3;0.3;;;;;;;;;;;;;
2024/03/29 11:20:24;;;;;;;1;0.3;;;;;;;;;;;;;
2024/03/29 11:22:43;;;;;;;0.2;0.2;;;;;;;;;;;;;
2024/03/29 11:25:08;;;;;;;0.8;0.2;;;;;;;;;;;;;
2024/03/29 11:27:33;;;;;;;0.4;0.3;;;;;;;;;;;;;
2024/03/29 11:29:58;;;;;;;0.3;0.3;;;;;;;;;;;;;
2024/03/29 11:32:23;;;;;;;0.2;0.2;;;;;;;;;;;;;
2024/03/29 11:34:48;;;;;;;1;0.5;;;;;;;;;;;;;
2024/03/29 11:37:15;;;;;;;0.6;0.4;;;;;;;;;;;;;
2024/03/29 11:39:40;;;;;;;0.5;0.4;;;;;;;;;;;;;
2024/03/29 11:42:04;;;;;;;0.4;0.3;;;;;;;;;;;;;
2024/03/29 11:44:29;;;;;;;0.1;0.1;;;;;;;;;;;;;
2024/03/29 11:46:54;;;;;;;0.1;0.1;;;;;;;;;;;;;
2024/03/29 11:49:19;;;;;;;0.3;0.3;;;;;;;;;;;;;
2024/03/29 11:51:44;;;;;;;1.4;0.3;;;;;;;;;;;;;
2024/03/29 11:54:09;;;;;;;1.1;0.3;;;;;;;;;;;;;
2024/03/29 11:56:35;;;;;;;0.4;0.2;;;;;;;;;;;;;
2024/03/29 11:59:00;;;;;;;0.7;0.3;;;;;;;;;;;;;
2024/03/29 12:01:24;;;;;;;0.4;0.3;;;;;;;;;;;;;
2024/03/29 12:03:50;;;;;;;0.2;0.2;;;;;;;;;;;;;
2024/03/29 12:06:16;;;;;;;0.5;0.3;;;;;;;;;;;;;
2024/03/29 12:08:42;;;;;;;0.3;0.3;;;;;;;;;;;;;
2024/03/29 12:11:05;;;;;;;0.3;0.3;;;;;;;;;;;;;
2024/03/29 12:13:30;;;;;;;0.4;0.3;;;;;;;;;;;;;
2024/03/29 12:15:55;;;;;;;0.5;0.5;;;;;;;;;;;;;
2024/03/29 12:18:20;;;;;;;0.4;0.4;;;;;;;;;;;;;
2024/03/29 12:20:49;;;;;;;0.6;0.4;;;;;;;;;;;;;
2024/03/29 12:23:11;;;;;;;0.5;0.5;;;;;;;;;;;;;
2024/03/29 12:25:36;;;;;;;0.5;0.4;;;;;;;;;;;;;
2024/03/29 12:28:01;;;;;;;2;0.3;;;;;;;;;;;;;
2024/03/29 12:30:26;;;;;;;0.3;0.2;;;;;;;;;;;;;
2024/03/29 12:32:51;;;;;;;0.4;0.3;;;;;;;;;;;;;
2024/03/29 12:35:17;;;;;;;0.4;0.3;;;;;;;;;;;;;
2024/03/29 12:37:42;;;;;;;0.3;0.3;;;;;;;;;;;;;
2024/03/29 12:40:11;;;;;;;0.3;0.3;;;;;;;;;;;;;
2024/03/29 12:42:32;;;;;;;0.2;0.2;;;;;;;;;;;;;
2024/03/29 12:44:57;;;;;;;0.3;0.3;;;;;;;;;;;;;
2024/03/29 12:47:22;;;;;;;0.2;0.2;;;;;;;;;;;;;
2024/03/29 12:49:47;;;;;;;0.1;0.1;;;;;;;;;;;;;
2024/03/29 12:52:13;;;;;;;0.3;0.2;;;;;;;;;;;;;
2024/03/29 12:54:37;;;;;;;0.4;0.3;;;;;;;;;;;;;
2024/03/29 12:57:03;;;;;;;0.4;0.3;;;;;;;;;;;;;
2024/03/29 12:59:37;;;;;;;0.2;0.2;;;;;;;;;;;;;
2024/03/29 13:02:03;;;;;;;0.2;0.2;;;;;;;;;;;;;
2024/03/29 13:04:27;;;;;;;0.2;0.2;;;;;;;;;;;;;
2024/03/29 13:06:52;;;;;;;1.2;0.4;;;;;;;;;;;;;
2024/03/29 13:09:17;;;;;;;1.3;0.3;;;;;;;;;;;;;
2024/03/29 13:11:42;;;;;;;0.5;0.3;;;;;;;;;;;;;
2024/03/29 13:14:07;;;;;;;0.2;0.2;;;;;;;;;;;;;
2024/03/29 13:16:32;;;;;;;0.3;0.2;;;;;;;;;;;;;
2024/03/29 13:18:57;;;;;;;1.4;0.7;;;;;;;;;;;;;
2024/03/29 13:21:23;;;;;;;0.2;0.1;;;;;;;;;;;;;
2024/03/29 13:23:48;;;;;;;0.2;0.1;;;;;;;;;;;;;
2024/03/29 13:26:13;;;;;;;0.1;0.1;;;;;;;;;;;;;
2024/03/29 13:28:38;;;;;;;0.7;0.5;;;;;;;;;;;;;
2024/03/29 13:31:03;;;;;;;0.6;0.3;;;;;;;;;;;;;
2024/03/29 13:33:29;;;;;;;0.1;0.1;;;;;;;;;;;;;
2024/03/29 13:35:54;;;;;;;0.9;0.2;;;;;;;;;;;;;
2024/03/29 13:38:22;;;;;;;0.2;0.2;;;;;;;;;;;;;
2024/03/29 13:40:44;;;;;;;0.2;0.2;;;;;;;;;;;;;
2024/03/29 13:43:09;;;;;;;0.2;0.2;;;;;;;;;;;;;
2024/03/29 13:45:34;;;;;;;0.3;0.2;;;;;;;;;;;;;
2024/03/29 13:47:59;;;;;;;0.3;0.3;;;;;;;;;;;;;
2024/03/29 13:50:24;;;;;;;0.2;0.2;;;;;;;;;;;;;
2024/03/29 13:52:49;;;;;;;2.2;0.4;;;;;;;;;;;;;
2024/03/29 13:55:14;;;;;;;0.3;0.3;;;;;;;;;;;;;
2024/03/29 13:57:40;;;;;;;0.2;0.2;;;;;;;;;;;;;
2024/03/29 14:00:05;;;;;;;0.2;0.2;;;;;;;;;;;;;
2024/03/29 14:02:30;;;;;;;0.1;0.1;;;;;;;;;;;;;
2024/03/29 14:04:55;;;;;;;0.4;0.2;;;;;;;;;;;;;
2024/03/29 14:07:20;;;;;;;0.2;0.2;;;;;;;;;;;;;
2024/03/29 14:09:45;;;;;;;0.2;0.1;;;;;;;;;;;;;
2024/03/29 14:12:10;;;;;;;0.3;0.2;;;;;;;;;;;;;
2024/03/29 14:14:35;;;;;;;0.3;0.2;;;;;;;;;;;;;
2024/03/29 14:17:03;;;;;;;0.2;0.2;;;;;;;;;;;;;
2024/03/29 14:19:28;;;;;;;0.1;0.1;;;;;;;;;;;;;
2024/03/29 14:21:51;;;;;;;0.2;0.2;;;;;;;;;;;;;
2024/03/29 14:24:16;;;;;;;0.6;0.2;;;;;;;;;;;;;
2024/03/29 14:26:41;;;;;;;0.1;0.1;;;;;;;;;;;;;
2024/03/29 14:29:06;;;;;;;0.3;0.2;;;;;;;;;;;;;
2024/03/29 14:31:31;;;;;;;0.4;0.3;;;;;;;;;;;;;
2024/03/29 14:33:56;;;;;;;0.3;0.2;;;;;;;;;;;;;
2024/03/29 14:36:21;;;;;;;0.5;0.3;;;;;;;;;;;;;
2024/03/29 14:38:47;;;;;;;0.5;0.3;;;;;;;;;;;;;
2024/03/29 14:41:12;;;;;;;1.1;0.4;;;;;;;;;;;;;
2024/03/29 14:43:37;;;;;;;1.3;0.3;;;;;;;;;;;;;
2024/03/29 14:46:02;;;;;;;1.3;0.6;;;;;;;;;;;;;
2024/03/29 14:48:27;;;;;;;3.1;0.6;;;;;;;;;;;;;
2024/03/29 14:50:54;;;;;;;2.3;0.5;;;;;;;;;;;;;
2024/03/29 14:53:17;;;;;;;5.6;0.8;;;;;;;;;;;;;
2024/03/29 14:55:42;;;;;;;5.4;1;;;;;;;;;;;;;
2024/03/29 14:58:07;;;;;;;4.3;1;;;;;;;;;;;;;
2024/03/29 15:00:33;;;;;;;7.4;1.4;;;;;;;;;;;;;
2024/03/29 15:02:58;;;;;;;5.4;1.3;;;;;;;;;;;;;
2024/03/29 15:05:23;;;;;;;8.2;1.6;;;;;;;;;;;;;
2024/03/29 15:07:48;;;;;;;11.4;2.5;;;;;;;;;;;;;
2024/03/29 15:10:14;;;;;;;11.5;2.5;;;;;;;;;;;;;
2024/03/29 15:12:38;;;;;;;20.1;3.7;;;;;;;;;;;;;
2024/03/29 15:15:03;;;;;;;14.8;3.4;;;;;;;;;;;;;
2024/03/29 15:17:28;;;;;;;22;3.8;;;;;;;;;;;;;
2024/03/29 15:19:54;;;;;;;17.1;2.9;;;;;;;;;;;;;
2024/03/29 15:22:19;;;;;;;17.1;3.2;;;;;;;;;;;;;
2024/03/29 15:24:44;;;;;;;17.1;4.3;;;;;;;;;;;;;
2024/03/29 15:27:26;;;;;;;30.6;6.1;;;;;;;;;;;;;
2024/03/29 15:29:34;;;;;;;36.2;5.2;;;;;;;;;;;;;
2024/03/29 15:31:59;;;;;;;30.6;5.3;;;;;;;;;;;;;
2024/03/29 15:34:24;;;;;;;35.3;5.8;;;;;;;;;;;;;
2024/03/29 15:36:49;;;;;;;28.1;5.7;;;;;;;;;;;;;
2024/03/29 15:39:19;;;;;;;30.6;5.6;;;;;;;;;;;;;
2024/03/29 15:41:40;;;;;;;36.7;6.9;;;;;;;;;;;;;
2024/03/29 15:44:05;;;;;;;40.5;6.7;;;;;;;;;;;;;
2024/03/29 15:46:31;;;;;;;55.1;8.7;;;;;;;;;;;;;
2024/03/29 15:48:55;;;;;;;41.4;7.3;;;;;;;;;;;;;
2024/03/29 15:51:20;;;;;;;40.3;7.4;;;;;;;;;;;;;
2024/03/29 15:53:45;;;;;;;36.3;6.8;;;;;;;;;;;;;
2024/03/29 15:56:11;;;;;;;26.7;5.5;;;;;;;;;;;;;
2024/03/29 15:58:36;;;;;;;30.9;6.4;;;;;;;;;;;;;
2024/03/29 16:01:01;;;;;;;37.8;5.2;;;;;;;;;;;;;
2024/03/29 16:03:26;;;;;;;46.1;6.5;;;;;;;;;;;;;
2024/03/29 16:05:52;;;;;;;39.6;7.1;;;;;;;;;;;;;
2024/03/29 16:08:18;;;;;;;40.2;7.1;;;;;;;;;;;;;
2024/03/29 16:10:41;;;;;;;30.9;6.1;;;;;;;;;;;;;
2024/03/29 16:13:06;;;;;;;47.3;8.1;;;;;;;;;;;;;
2024/03/29 16:15:31;;;;;;;40.2;7.1;;;;;;;;;;;;;
2024/03/29 16:17:56;;;;;;;40.6;6.8;;;;;;;;;;;;;
2024/03/29 16:20:21;;;;;;;42.5;8.1;;;;;;;;;;;;;
2024/03/29 16:22:46;;;;;;;34.7;7.1;;;;;;;;;;;;;
2024/03/29 16:25:12;;;;;;;50.7;8.6;;;;;;;;;;;;;
2024/03/29 16:27:37;;;;;;;36.7;6.6;;;;;;;;;;;;;
2024/03/29 16:30:02;;;;;;;46.9;8.5;;;;;;;;;;;;;
2024/03/29 16:32:29;;;;;;;46.1;7.6;;;;;;;;;;;;;
2024/03/29 16:34:52;;;;;;;48.6;8.6;;;;;;;;;;;;;
2024/03/29 16:37:17;;;;;;;59.7;9;;;;;;;;;;;;;
2024/03/29 16:39:42;;;;;;;53.4;9.1;;;;;;;;;;;;;
2024/03/29 16:42:07;;;;;;;38.9;7.9;;;;;;;;;;;;;
2024/03/29 16:44:32;;;;;;;44;8.9;;;;;;;;;;;;;
2024/03/29 16:46:57;;;;;;;51.9;9.4;;;;;;;;;;;;;
2024/03/29 16:49:24;;;;;;;59.6;10.7;;;;;;;;;;;;;
2024/03/29 16:51:48;;;;;;;69.3;11.5;;;;;;;;;;;;;
2024/03/29 16:54:13;;;;;;;68.5;12.1;;;;;;;;;;;;;
2024/03/29 16:56:38;;;;;;;81.8;13.8;;;;;;;;;;;;;
2024/03/29 16:59:06;;;;;;;61.1;10.9;;;;;;;;;;;;;
2024/03/29 17:01:28;;;;;;;72;12.5;;;;;;;;;;;;;
2024/03/29 17:03:53;;;;;;;76.6;12.2;;;;;;;;;;;;;
2024/03/29 17:06:18;;;;;;;68.5;13.5;;;;;;;;;;;;;
2024/03/29 17:08:44;;;;;;;82;12.6;;;;;;;;;;;;;
2024/03/29 17:11:09;;;;;;;76.4;12.6;;;;;;;;;;;;;
2024/03/29 17:13:34;;;;;;;95.6;14.9;;;;;;;;;;;;;
2024/03/29 17:15:59;;;;;;;91.9;14.1;;;;;;;;;;;;;
2024/03/29 17:18:24;;;;;;;87.6;15.3;;;;;;;;;;;;;
2024/03/29 17:20:49;;;;;;;85.5;14.4;;;;;;;;;;;;;
2024/03/29 17:23:14;;;;;;;75.7;13;;;;;;;;;;;;;
2024/03/29 17:25:40;;;;;;;75.2;13.5;;;;;;;;;;;;;
2024/03/29 17:28:04;;;;;;;86.3;14.7;;;;;;;;;;;;;
2024/03/29 17:30:30;;;;;;;98.9;16.8;;;;;;;;;;;;;
2024/03/29 17:32:55;;;;;;;105.9;18.6;;;;;;;;;;;;;
2024/03/29 17:35:20;;;;;;;117.8;17.8;;;;;;;;;;;;;
2024/03/29 17:37:45;;;;;;;119;20.1;;;;;;;;;;;;;
2024/03/29 17:40:10;;;;;;;98.5;15.6;;;;;;;;;;;;;
2024/03/29 17:42:35;;;;;;;91.2;16.6;;;;;;;;;;;;;
2024/03/29 17:45:00;;;;;;;101.8;14.9;;;;;;;;;;;;;
2024/03/29 17:47:25;;;;;;;87;14.6;;;;;;;;;;;;;
2024/03/29 17:49:50;;;;;;;89.3;15.4;;;;;;;;;;;;;
2024/03/29 17:52:16;;;;;;;88.6;14.1;;;;;;;;;;;;;
2024/03/29 17:54:40;;;;;;;86.2;16.3;;;;;;;;;;;;;
2024/03/29 17:57:06;;;;;;;95;15.6;;;;;;;;;;;;;
2024/03/29 17:59:31;;;;;;;112;16;;;;;;;;;;;;;
2024/03/29 18:01:56;;;;;;;92.7;16.4;;;;;;;;;;;;;
2024/03/29 18:04:21;;;;;;;109.1;19.1;;;;;;;;;;;;;
2024/03/29 18:06:46;;;;;;;94;15.8;;;;;;;;;;;;;
2024/03/29 18:09:11;;;;;;;93.1;14.8;;;;;;;;;;;;;
2024/03/29 18:11:37;;;;;;;100.7;17.8;;;;;;;;;;;;;
2024/03/29 18:14:01;;;;;;;105.2;19.1;;;;;;;;;;;;;
2024/03/29 18:16:26;;;;;;;120.6;18.7;;;;;;;;;;;;;
2024/03/29 18:18:51;;;;;;;107;15.6;;;;;;;;;;;;;
2024/03/29 18:21:16;;;;;;;112.7;20.6;;;;;;;;;;;;;
2024/03/29 18:23:42;;;;;;;82.2;15.6;;;;;;;;;;;;;
2024/03/29 18:26:06;;;;;;;108;19;;;;;;;;;;;;;
2024/03/29 18:28:32;;;;;;;112.5;19.4;;;;;;;;;;;;;
2024/03/29 18:31:01;;;;;;;104.9;16.9;;;;;;;;;;;;;
2024/03/29 18:33:22;;;;;;;94.1;16.3;;;;;;;;;;;;;
2024/03/29 18:35:47;;;;;;;110.4;20.2;;;;;;;;;;;;;
2024/03/29 18:38:12;;;;;;;121.1;18.8;;;;;;;;;;;;;
2024/03/29 18:40:37;;;;;;;123.5;18.4;;;;;;;;;;;;;
2024/03/29 18:43:03;;;;;;;107.3;19.2;;;;;;;;;;;;;
2024/03/29 18:45:28;;;;;;;120.4;19.6;;;;;;;;;;;;;
2024/03/29 18:47:53;;;;;;;112.3;18.9;;;;;;;;;;;;;
2024/03/29 18:50:18;;;;;;;106.2;17.3;;;;;;;;;;;;;
2024/03/29 18:52:43;;;;;;;112.9;19.5;;;;;;;;;;;;;
2024/03/29 18:55:08;;;;;;;119.1;20.5;;;;;;;;;;;;;
2024/03/29 18:57:34;;;;;;;118.4;19;;;;;;;;;;;;;
2024/03/29 18:59:59;;;;;;;117.5;19.3;;;;;;;;;;;;;
2024/03/29 19:02:24;;;;;;;93;17.5;;;;;;;;;;;;;
2024/03/29 19:04:49;;;;;;;105.2;18.8;;;;;;;;;;;;;
2024/03/29 19:07:14;;;;;;;114.1;18.4;;;;;;;;;;;;;
2024/03/29 19:09:39;;;;;;;117.7;18.2;;;;;;;;;;;;;
2024/03/29 19:12:04;;;;;;;112.7;17.7;;;;;;;;;;;;;
2024/03/29 19:14:29;;;;;;;131.1;19.3;;;;;;;;;;;;;
2024/03/29 19:16:55;;;;;;;115.7;19.6;;;;;;;;;;;;;
2024/03/29 19:19:20;;;;;;;130;21.1;;;;;;;;;;;;;
2024/03/29 19:21:47;;;;;;;123.5;19.7;;;;;;;;;;;;;
2024/03/29 19:24:10;;;;;;;124.8;20.5;;;;;;;;;;;;;
2024/03/29 19:26:35;;;;;;;116.2;19.4;;;;;;;;;;;;;
2024/03/29 19:29:00;;;;;;;122;20.9;;;;;;;;;;;;;
2024/03/29 19:31:25;;;;;;;115.3;19.7;;;;;;;;;;;;;
2024/03/29 19:33:50;;;;;;;137.7;21.9;;;;;;;;;;;;;
2024/03/29 19:36:16;;;;;;;120.2;20.3;;;;;;;;;;;;;
2024/03/29 19:38:41;;;;;;;128.5;21.1;;;;;;;;;;;;;
2024/03/29 19:41:06;;;;;;;129.5;21.1;;;;;;;;;;;;;
2024/03/29 19:43:34;;;;;;;112.5;21.1;;;;;;;;;;;;;
2024/03/29 19:45:56;;;;;;;110.8;21.1;;;;;;;;;;;;;
2024/03/29 19:48:21;;;;;;;135.3;19.8;;;;;;;;;;;;;
2024/03/29 19:50:46;;;;;;;106.3;19;;;;;;;;;;;;;
2024/03/29 19:53:11;;;;;;;158;37.7;;;;;;;;;;;;;
2024/03/29 19:55:37;;;;;;;143.3;29.5;;;;;;;;;;;;;
2024/03/29 19:58:02;;;;;;;125.5;24.6;;;;;;;;;;;;;
2024/03/29 20:00:27;;;;;;;146.6;44.5;;;;;;;;;;;;;
2024/03/29 20:02:52;;;;;;;119.8;25.4;;;;;;;;;;;;;
2024/03/29 20:05:17;;;;;;;133;23.6;;;;;;;;;;;;;
2024/03/29 20:07:42;;;;;;;118.6;20.9;;;;;;;;;;;;;
2024/03/29 20:10:07;;;;;;;110.7;20.5;;;;;;;;;;;;;
2024/03/29 20:12:33;;;;;;;109;20.5;;;;;;;;;;;;;
2024/03/29 20:14:57;;;;;;;115.9;22.1;;;;;;;;;;;;;
2024/03/29 20:17:23;;;;;;;118.4;21.1;;;;;;;;;;;;;
2024/03/29 20:19:48;;;;;;;121;19.4;;;;;;;;;;;;;